<?xml version='1.0' encoding='UTF-8'?><gpx version="1.1" creator="JPX - https://github.com/jenetics/jpx" xmlns="http://www.topografix.com/GPX/1/1"><trk><trkseg><trkpt lat="44.31743298130832" lon="9.206832087194325"><ele>203.0</ele><time>2026-05-02T11:37:44.999Z</time></trkpt><trkpt lat="44.317417202295125" lon="9.206736942020388"><ele>203.0</ele><time>2026-05-02T11:37:47.999Z</time></trkpt><trkpt lat="44.31735937530866" lon="9.20680283310727"><ele>203.0</ele><time>2026-05-02T11:38:03Z</time></trkpt><trkpt lat="44.31729446730436" lon="9.206761602374579"><ele>203.0</ele><time>2026-05-02T11:38:09Z</time></trkpt><trkpt lat="44.317227039321274" lon="9.206756905058775"><ele>203.0</ele><time>2026-05-02T11:38:15Z</time></trkpt><trkpt lat="44.31715524308946" lon="9.206745740441537"><ele>203.0</ele><time>2026-05-02T11:38:23Z</time></trkpt><trkpt lat="44.31709488857695" lon="9.206786226227376"><ele>203.0</ele><time>2026-05-02T11:38:29Z</time></trkpt><trkpt lat="44.31703286170501" lon="9.20681192348176"><ele>201.57142857142858</ele><time>2026-05-02T11:38:39.999Z</time></trkpt><trkpt lat="44.31697328537053" lon="9.206845380849712"><ele>200.14285714285714</ele><time>2026-05-02T11:38:48.999Z</time></trkpt><trkpt lat="44.31690749675583" lon="9.206834832946027"><ele>198.71428571428572</ele><time>2026-05-02T11:38:55.999Z</time></trkpt><trkpt lat="44.316827907896595" lon="9.206851178815736"><ele>197.28571428571428</ele><time>2026-05-02T11:39:00.999Z</time></trkpt><trkpt lat="44.316755839090696" lon="9.206870909830467"><ele>195.85714285714286</ele><time>2026-05-02T11:39:06.999Z</time></trkpt><trkpt lat="44.31670294974306" lon="9.206921950587594"><ele>194.42857142857144</ele><time>2026-05-02T11:39:15.999Z</time></trkpt><trkpt lat="44.31663859824201" lon="9.206962682534213"><ele>193.0</ele><time>2026-05-02T11:39:22.999Z</time></trkpt><trkpt lat="44.31657817498621" lon="9.207014206855327"><ele>193.00000000000003</ele><time>2026-05-02T11:39:30.999Z</time></trkpt><trkpt lat="44.31652038582082" lon="9.207052977330992"><ele>193.0</ele><time>2026-05-02T11:39:43.999Z</time></trkpt><trkpt lat="44.316452876006906" lon="9.207068925327741"><ele>193.0</ele><time>2026-05-02T11:39:49.999Z</time></trkpt><trkpt lat="44.31638883080819" lon="9.207047727242086"><ele>193.0</ele><time>2026-05-02T11:40:10Z</time></trkpt><trkpt lat="44.31632234838273" lon="9.207061213665893"><ele>193.0</ele><time>2026-05-02T11:40:18Z</time></trkpt><trkpt lat="44.31626502971688" lon="9.207098169790475"><ele>193.00000000000003</ele><time>2026-05-02T11:40:25Z</time></trkpt><trkpt lat="44.316198983460396" lon="9.207140323937761"><ele>193.0</ele><time>2026-05-02T11:40:33.999Z</time></trkpt><trkpt lat="44.31613081092751" lon="9.20718045097218"><ele>190.42857142857144</ele><time>2026-05-02T11:40:42.999Z</time></trkpt><trkpt lat="44.31606015004959" lon="9.207219560786346"><ele>187.85714285714286</ele><time>2026-05-02T11:40:49.999Z</time></trkpt><trkpt lat="44.316005555661796" lon="9.207274363658177"><ele>185.28571428571428</ele><time>2026-05-02T11:40:56.999Z</time></trkpt><trkpt lat="44.31593771344779" lon="9.207295936187085"><ele>182.71428571428572</ele><time>2026-05-02T11:41:02.999Z</time></trkpt><trkpt lat="44.31587539276955" lon="9.207336287467273"><ele>180.14285714285714</ele><time>2026-05-02T11:41:07.999Z</time></trkpt><trkpt lat="44.31580973535445" lon="9.207374267203544"><ele>177.57142857142858</ele><time>2026-05-02T11:41:14.999Z</time></trkpt><trkpt lat="44.31573742333229" lon="9.20738770919863"><ele>175.0</ele><time>2026-05-02T11:41:20.999Z</time></trkpt><trkpt lat="44.31566270914215" lon="9.20737774163703"><ele>175.0</ele><time>2026-05-02T11:41:26.999Z</time></trkpt><trkpt lat="44.31559561457589" lon="9.207353216517983"><ele>175.0</ele><time>2026-05-02T11:41:31.999Z</time></trkpt><trkpt lat="44.31553216655817" lon="9.207348982389538"><ele>175.0</ele><time>2026-05-02T11:41:36.999Z</time></trkpt><trkpt lat="44.31546071834079" lon="9.207344855609803"><ele>175.0</ele><time>2026-05-02T11:41:43.999Z</time></trkpt><trkpt lat="44.31538444288052" lon="9.207347323855428"><ele>175.0</ele><time>2026-05-02T11:41:50Z</time></trkpt><trkpt lat="44.3153257027013" lon="9.207386585888827"><ele>175.0</ele><time>2026-05-02T11:41:55Z</time></trkpt><trkpt lat="44.31526274460039" lon="9.207371225981037"><ele>175.0</ele><time>2026-05-02T11:42:01Z</time></trkpt><trkpt lat="44.31529324964615" lon="9.207286259314353"><ele>170.28571428571428</ele><time>2026-05-02T11:42:10Z</time></trkpt><trkpt lat="44.31533978154641" lon="9.20721407332768"><ele>165.57142857142856</ele><time>2026-05-02T11:42:15Z</time></trkpt><trkpt lat="44.31534064069233" lon="9.207123100907435"><ele>160.85714285714286</ele><time>2026-05-02T11:42:25Z</time></trkpt><trkpt lat="44.31531287147098" lon="9.207039666895081"><ele>156.14285714285714</ele><time>2026-05-02T11:42:33Z</time></trkpt><trkpt lat="44.31528358094854" lon="9.206960654102858"><ele>151.42857142857142</ele><time>2026-05-02T11:42:40Z</time></trkpt><trkpt lat="44.31525644277323" lon="9.206870745868537"><ele>146.71428571428572</ele><time>2026-05-02T11:42:49Z</time></trkpt><trkpt lat="44.31523666881672" lon="9.206782962667646"><ele>142.0</ele><time>2026-05-02T11:42:56.999Z</time></trkpt><trkpt lat="44.31520146216019" lon="9.20669366727108"><ele>142.0</ele><time>2026-05-02T11:43:02.999Z</time></trkpt><trkpt lat="44.31513660880103" lon="9.206693235781062"><ele>142.0</ele><time>2026-05-02T11:43:07.999Z</time></trkpt><trkpt lat="44.31506827371813" lon="9.206681350449978"><ele>142.0</ele><time>2026-05-02T11:43:12.999Z</time></trkpt><trkpt lat="44.31500020979442" lon="9.206648560622137"><ele>142.0</ele><time>2026-05-02T11:43:17.999Z</time></trkpt><trkpt lat="44.314933773243816" lon="9.206667680922452"><ele>142.0</ele><time>2026-05-02T11:43:22.999Z</time></trkpt><trkpt lat="44.31486065829698" lon="9.206661956712741"><ele>142.0</ele><time>2026-05-02T11:43:27.999Z</time></trkpt><trkpt lat="44.31479420191106" lon="9.206623702290505"><ele>142.0</ele><time>2026-05-02T11:43:33.999Z</time></trkpt><trkpt lat="44.314722742499534" lon="9.206599621899993"><ele>138.85714285714286</ele><time>2026-05-02T11:43:42.999Z</time></trkpt><trkpt lat="44.31466989331154" lon="9.206543178760953"><ele>135.7142857142857</ele><time>2026-05-02T11:43:48.999Z</time></trkpt><trkpt lat="44.31465110485888" lon="9.206452320442397"><ele>132.57142857142856</ele><time>2026-05-02T11:43:55Z</time></trkpt><trkpt lat="44.314628197323216" lon="9.206357547796058"><ele>129.42857142857142</ele><time>2026-05-02T11:44:02Z</time></trkpt><trkpt lat="44.31455883412609" lon="9.20632853969937"><ele>126.28571428571428</ele><time>2026-05-02T11:44:08Z</time></trkpt><trkpt lat="44.314495076439314" lon="9.20629315255296"><ele>123.14285714285714</ele><time>2026-05-02T11:44:14Z</time></trkpt><trkpt lat="44.31442947227508" lon="9.206262057471008"><ele>120.0</ele><time>2026-05-02T11:44:19Z</time></trkpt><trkpt lat="44.314478669378104" lon="9.206205676654301"><ele>118.33333333333333</ele><time>2026-05-02T11:44:29Z</time></trkpt><trkpt lat="44.31450285526718" lon="9.206084862492508"><ele>116.66666666666666</ele><time>2026-05-02T11:44:40Z</time></trkpt><trkpt lat="44.31440231079896" lon="9.206074206092897"><ele>115.0</ele><time>2026-05-02T11:44:55Z</time></trkpt><trkpt lat="44.31435069009023" lon="9.206011981546974"><ele>113.33333333333333</ele><time>2026-05-02T11:45:02Z</time></trkpt><trkpt lat="44.314295876187714" lon="9.2059550304489"><ele>111.66666666666666</ele><time>2026-05-02T11:45:09Z</time></trkpt><trkpt lat="44.314362380186964" lon="9.20594365044596"><ele>110.0</ele><time>2026-05-02T11:45:15Z</time></trkpt><trkpt lat="44.31430165576329" lon="9.205985918985542"><ele>109.99999999999999</ele><time>2026-05-02T11:45:17Z</time></trkpt><trkpt lat="44.31426320265369" lon="9.206061392563122"><ele>110.0</ele><time>2026-05-02T11:45:23.999Z</time></trkpt><trkpt lat="44.31423173710531" lon="9.206140224864644"><ele>110.0</ele><time>2026-05-02T11:45:32.999Z</time></trkpt><trkpt lat="44.31415085272204" lon="9.206179052955992"><ele>110.0</ele><time>2026-05-02T11:45:39.999Z</time></trkpt><trkpt lat="44.3140871300897" lon="9.206248327331517"><ele>110.0</ele><time>2026-05-02T11:45:50.999Z</time></trkpt><trkpt lat="44.314037004983774" lon="9.206316301551738"><ele>109.99999999999999</ele><time>2026-05-02T11:45:58.999Z</time></trkpt><trkpt lat="44.31403664745019" lon="9.206409197301014"><ele>110.0</ele><time>2026-05-02T11:46:06Z</time></trkpt><trkpt lat="44.31398425346435" lon="9.206478495674348"><ele>111.42857142857142</ele><time>2026-05-02T11:46:14Z</time></trkpt><trkpt lat="44.31396313124166" lon="9.206567596012334"><ele>112.85714285714286</ele><time>2026-05-02T11:46:23Z</time></trkpt><trkpt lat="44.31390436847739" lon="9.20666653083137"><ele>114.28571428571428</ele><time>2026-05-02T11:46:42Z</time></trkpt><trkpt lat="44.31382423215613" lon="9.20664079543398"><ele>115.71428571428571</ele><time>2026-05-02T11:46:55Z</time></trkpt><trkpt lat="44.31375827692279" lon="9.206623826562286"><ele>117.14285714285714</ele><time>2026-05-02T11:47:03Z</time></trkpt><trkpt lat="44.313694963363595" lon="9.206634308232166"><ele>118.57142857142857</ele><time>2026-05-02T11:47:30Z</time></trkpt><trkpt lat="44.313629269340204" lon="9.206635427248436"><ele>120.0</ele><time>2026-05-02T11:47:46.999Z</time></trkpt><trkpt lat="44.31356294920647" lon="9.206613832356062"><ele>115.57142857142857</ele><time>2026-05-02T11:48:06Z</time></trkpt><trkpt lat="44.313502662332354" lon="9.206578326108147"><ele>111.14285714285714</ele><time>2026-05-02T11:48:15Z</time></trkpt><trkpt lat="44.31346602504749" lon="9.206503738244741"><ele>106.71428571428571</ele><time>2026-05-02T11:48:26Z</time></trkpt><trkpt lat="44.31341302066986" lon="9.206563572103539"><ele>102.28571428571428</ele><time>2026-05-02T11:48:39Z</time></trkpt><trkpt lat="44.31336642206237" lon="9.206625036119643"><ele>97.85714285714286</ele><time>2026-05-02T11:48:46Z</time></trkpt><trkpt lat="44.31332387163158" lon="9.206734609145949"><ele>93.42857142857142</ele><time>2026-05-02T11:48:58Z</time></trkpt><trkpt lat="44.31330966439657" lon="9.20682130539119"><ele>89.0</ele><time>2026-05-02T11:49:06Z</time></trkpt><trkpt lat="44.313271494973485" lon="9.206904719128374"><ele>89.0</ele><time>2026-05-02T11:49:18Z</time></trkpt><trkpt lat="44.313233299314824" lon="9.206988252440691"><ele>89.0</ele><time>2026-05-02T11:49:48Z</time></trkpt><trkpt lat="44.313162612699905" lon="9.2069894021555"><ele>89.0</ele><time>2026-05-02T11:49:57Z</time></trkpt><trkpt lat="44.31309499604495" lon="9.20707197977783"><ele>89.0</ele><time>2026-05-02T11:50:10.999Z</time></trkpt><trkpt lat="44.313011893783894" lon="9.207105363107235"><ele>89.0</ele><time>2026-05-02T11:50:53Z</time></trkpt><trkpt lat="44.31298028290811" lon="9.207185513381901"><ele>89.0</ele><time>2026-05-02T11:51:07Z</time></trkpt><trkpt lat="44.31290390888615" lon="9.20730107477874"><ele>84.71428571428571</ele><time>2026-05-02T11:58:16.999Z</time></trkpt><trkpt lat="44.312860636803535" lon="9.207366949525058"><ele>80.42857142857143</ele><time>2026-05-02T11:58:25.999Z</time></trkpt><trkpt lat="44.31280734281591" lon="9.207424907247855"><ele>76.14285714285714</ele><time>2026-05-02T11:58:36Z</time></trkpt><trkpt lat="44.312766647208456" lon="9.207499972209117"><ele>71.85714285714286</ele><time>2026-05-02T11:58:49Z</time></trkpt><trkpt lat="44.31270945936673" lon="9.207541881774935"><ele>67.57142857142857</ele><time>2026-05-02T11:59:00Z</time></trkpt><trkpt lat="44.31265453718604" lon="9.207600536604623"><ele>63.285714285714285</ele><time>2026-05-02T11:59:18Z</time></trkpt><trkpt lat="44.31260034498817" lon="9.207663309921564"><ele>59.0</ele><time>2026-05-02T11:59:30Z</time></trkpt><trkpt lat="44.31255376107949" lon="9.207737694926701"><ele>59.0</ele><time>2026-05-02T11:59:39Z</time></trkpt><trkpt lat="44.312511023403594" lon="9.207811297635029"><ele>59.0</ele><time>2026-05-02T11:59:48Z</time></trkpt><trkpt lat="44.31247766847257" lon="9.207886936796429"><ele>59.0</ele><time>2026-05-02T11:59:54Z</time></trkpt><trkpt lat="44.31241635665158" lon="9.207951799422613"><ele>59.0</ele><time>2026-05-02T12:00:07Z</time></trkpt><trkpt lat="44.3123474987863" lon="9.207963363676821"><ele>59.0</ele><time>2026-05-02T12:00:15Z</time></trkpt><trkpt lat="44.31227933446397" lon="9.208039974121284"><ele>59.0</ele><time>2026-05-02T12:00:24.999Z</time></trkpt><trkpt lat="44.31219542849116" lon="9.208037586977397"><ele>59.0</ele><time>2026-05-02T12:00:35.999Z</time></trkpt><trkpt lat="44.31213346904758" lon="9.208094929992784"><ele>54.57142857142857</ele><time>2026-05-02T12:01:08Z</time></trkpt><trkpt lat="44.31206552519083" lon="9.208137509981876"><ele>50.142857142857146</ele><time>2026-05-02T12:01:26Z</time></trkpt><trkpt lat="44.31201603626785" lon="9.208211550848688"><ele>45.714285714285715</ele><time>2026-05-02T12:01:43Z</time></trkpt><trkpt lat="44.31194742695817" lon="9.208257147258532"><ele>41.285714285714285</ele><time>2026-05-02T12:01:48Z</time></trkpt><trkpt lat="44.311898532580614" lon="9.208318310293057"><ele>36.85714285714286</ele><time>2026-05-02T12:02:00Z</time></trkpt><trkpt lat="44.311824853847064" lon="9.208342280124569"><ele>32.42857142857143</ele><time>2026-05-02T12:02:07.999Z</time></trkpt><trkpt lat="44.311797210595735" lon="9.208261089349962"><ele>28.0</ele><time>2026-05-02T12:02:13.999Z</time></trkpt><trkpt lat="44.31172134063516" lon="9.208296781716495"><ele>27.285714285714285</ele><time>2026-05-02T12:02:23.999Z</time></trkpt><trkpt lat="44.311666636258046" lon="9.20822544419188"><ele>26.57142857142857</ele><time>2026-05-02T12:02:40.999Z</time></trkpt><trkpt lat="44.31159616064355" lon="9.208213533759393"><ele>25.857142857142858</ele><time>2026-05-02T12:02:45.999Z</time></trkpt><trkpt lat="44.311565590644754" lon="9.208292110438695"><ele>25.142857142857142</ele><time>2026-05-02T12:03:43Z</time></trkpt><trkpt lat="44.31158849611879" lon="9.20839530488121"><ele>24.428571428571427</ele><time>2026-05-02T12:10:19Z</time></trkpt><trkpt lat="44.31153825195939" lon="9.20848079446412"><ele>23.714285714285715</ele><time>2026-05-02T12:10:31Z</time></trkpt><trkpt lat="44.31147128517159" lon="9.208507778258895"><ele>23.0</ele><time>2026-05-02T12:10:35Z</time></trkpt><trkpt lat="44.31145692723278" lon="9.208604202655676"><ele>22.857142857142858</ele><time>2026-05-02T12:10:41Z</time></trkpt><trkpt lat="44.31136195971257" lon="9.208611262208642"><ele>22.71428571428571</ele><time>2026-05-02T12:10:57.999Z</time></trkpt><trkpt lat="44.31133942450273" lon="9.208522186209137"><ele>22.57142857142857</ele><time>2026-05-02T12:11:00.999Z</time></trkpt><trkpt lat="44.31127404541976" lon="9.20850084397211"><ele>22.42857142857143</ele><time>2026-05-02T12:11:06.999Z</time></trkpt><trkpt lat="44.31120244482796" lon="9.208492889213913"><ele>22.285714285714285</ele><time>2026-05-02T12:11:10.999Z</time></trkpt><trkpt lat="44.31114633006604" lon="9.208539822175725"><ele>22.142857142857142</ele><time>2026-05-02T12:11:16Z</time></trkpt><trkpt lat="44.31111924249448" lon="9.208622464123566"><ele>22.0</ele><time>2026-05-02T12:11:21Z</time></trkpt><trkpt lat="44.3110656170293" lon="9.208683107395842"><ele>22.0</ele><time>2026-05-02T12:11:30Z</time></trkpt><trkpt lat="44.31102804367083" lon="9.208763997515678"><ele>22.0</ele><time>2026-05-02T12:11:38Z</time></trkpt><trkpt lat="44.310979802698576" lon="9.208829930688225"><ele>22.0</ele><time>2026-05-02T12:11:44Z</time></trkpt><trkpt lat="44.3109130623601" lon="9.208848052137423"><ele>22.0</ele><time>2026-05-02T12:11:57Z</time></trkpt><trkpt lat="44.310872143945666" lon="9.208774014619351"><ele>22.0</ele><time>2026-05-02T12:12:04Z</time></trkpt><trkpt lat="44.310813439528694" lon="9.208710817491312"><ele>22.0</ele><time>2026-05-02T12:12:11Z</time></trkpt><trkpt lat="44.31073834252186" lon="9.208717871856425"><ele>22.0</ele><time>2026-05-02T12:12:18Z</time></trkpt><trkpt lat="44.31066426198991" lon="9.208720198948058"><ele>22.0</ele><time>2026-05-02T12:12:25Z</time></trkpt><trkpt lat="44.31060331008438" lon="9.208755281512992"><ele>22.0</ele><time>2026-05-02T12:12:31Z</time></trkpt><trkpt lat="44.31061843691534" lon="9.208841783508745"><ele>22.0</ele><time>2026-05-02T12:12:34.999Z</time></trkpt><trkpt lat="44.31059319414398" lon="9.208759583614892"><ele>22.0</ele><time>2026-05-02T12:12:58.999Z</time></trkpt><trkpt lat="44.31053449796465" lon="9.208792093822883"><ele>22.0</ele><time>2026-05-02T12:13:03.999Z</time></trkpt><trkpt lat="44.31047790255371" lon="9.208841115462683"><ele>22.0</ele><time>2026-05-02T12:13:08.999Z</time></trkpt><trkpt lat="44.31042123092387" lon="9.208883251662964"><ele>22.0</ele><time>2026-05-02T12:13:13.999Z</time></trkpt><trkpt lat="44.31036909375444" lon="9.20894527523418"><ele>23.0</ele><time>2026-05-02T12:13:20Z</time></trkpt><trkpt lat="44.31030905969887" lon="9.20900144130647"><ele>24.0</ele><time>2026-05-02T12:13:26Z</time></trkpt><trkpt lat="44.31024838016242" lon="9.209040972687855"><ele>25.0</ele><time>2026-05-02T12:13:35Z</time></trkpt><trkpt lat="44.310205983205655" lon="9.209111406721616"><ele>26.0</ele><time>2026-05-02T12:13:43Z</time></trkpt><trkpt lat="44.31014544665069" lon="9.209147893239352"><ele>27.0</ele><time>2026-05-02T12:13:48Z</time></trkpt><trkpt lat="44.31007749326277" lon="9.2091468638448"><ele>28.000000000000004</ele><time>2026-05-02T12:13:54Z</time></trkpt><trkpt lat="44.31001495600818" lon="9.20918588564646"><ele>29.000000000000004</ele><time>2026-05-02T12:14:03Z</time></trkpt><trkpt lat="44.30995408814311" lon="9.209232711946237"><ele>29.000000000000004</ele><time>2026-05-02T12:14:20Z</time></trkpt><trkpt lat="44.30988498721901" lon="9.209267446374135"><ele>29.0</ele><time>2026-05-02T12:14:25Z</time></trkpt><trkpt lat="44.309826202770004" lon="9.20930192350356"><ele>29.000000000000004</ele><time>2026-05-02T12:14:31Z</time></trkpt><trkpt lat="44.30976297053657" lon="9.209362927678596"><ele>29.000000000000004</ele><time>2026-05-02T12:14:36.999Z</time></trkpt><trkpt lat="44.3097076822841" lon="9.20942238134056"><ele>29.0</ele><time>2026-05-02T12:14:42.999Z</time></trkpt><trkpt lat="44.30964257196841" lon="9.209457636894774"><ele>29.000000000000004</ele><time>2026-05-02T12:14:49.999Z</time></trkpt><trkpt lat="44.3095926413477" lon="9.209530504979316"><ele>29.000000000000004</ele><time>2026-05-02T12:14:53.999Z</time></trkpt><trkpt lat="44.30954378650833" lon="9.209589501221476"><ele>27.428571428571434</ele><time>2026-05-02T12:15:00.999Z</time></trkpt><trkpt lat="44.30949102056186" lon="9.20964547369357"><ele>25.857142857142858</ele><time>2026-05-02T12:15:05.999Z</time></trkpt><trkpt lat="44.309422663659106" lon="9.20970833268819"><ele>24.28571428571429</ele><time>2026-05-02T12:15:11.999Z</time></trkpt><trkpt lat="44.30940947542412" lon="9.209798123565715"><ele>22.714285714285715</ele><time>2026-05-02T12:15:18.999Z</time></trkpt><trkpt lat="44.30935076621172" lon="9.209836892676893"><ele>21.142857142857146</ele><time>2026-05-02T12:15:27Z</time></trkpt><trkpt lat="44.3093033791394" lon="9.209896960010449"><ele>19.571428571428573</ele><time>2026-05-02T12:16:14Z</time></trkpt><trkpt lat="44.30925942333274" lon="9.209965293789498"><ele>18.0</ele><time>2026-05-02T12:18:29Z</time></trkpt><trkpt lat="44.309182053477635" lon="9.209943106723745"><ele>18.000000000000004</ele><time>2026-05-02T12:18:38Z</time></trkpt><trkpt lat="44.30911471975507" lon="9.209931332389786"><ele>18.0</ele><time>2026-05-02T12:18:58.999Z</time></trkpt><trkpt lat="44.30905667515227" lon="9.209896522193668"><ele>18.0</ele><time>2026-05-02T12:19:05.999Z</time></trkpt><trkpt lat="44.308989667931385" lon="9.209893929490523"><ele>18.0</ele><time>2026-05-02T12:19:11.999Z</time></trkpt><trkpt lat="44.30893431642447" lon="9.209848963535386"><ele>18.0</ele><time>2026-05-02T12:19:17.999Z</time></trkpt><trkpt lat="44.30887265504765" lon="9.209804666368155"><ele>18.000000000000004</ele><time>2026-05-02T12:19:24.999Z</time></trkpt><trkpt lat="44.30881556170691" lon="9.209752500405235"><ele>18.0</ele><time>2026-05-02T12:19:32.999Z</time></trkpt><trkpt lat="44.30878200086424" lon="9.209669161253956"><ele>20.28571428571429</ele><time>2026-05-02T12:19:39Z</time></trkpt><trkpt lat="44.308730962238194" lon="9.209616621080208"><ele>22.57142857142857</ele><time>2026-05-02T12:19:44Z</time></trkpt><trkpt lat="44.30869025675921" lon="9.209545141156621"><ele>24.857142857142854</ele><time>2026-05-02T12:19:51Z</time></trkpt><trkpt lat="44.30866249381665" lon="9.209629947337287"><ele>27.142857142857142</ele><time>2026-05-02T12:20:26Z</time></trkpt><trkpt lat="44.30869558420315" lon="9.209725675647588"><ele>29.428571428571427</ele><time>2026-05-02T12:20:33Z</time></trkpt><trkpt lat="44.30873759933543" lon="9.209806431254401"><ele>31.71428571428571</ele><time>2026-05-02T12:20:39Z</time></trkpt><trkpt lat="44.30878106986693" lon="9.209892665532207"><ele>34.0</ele><time>2026-05-02T12:20:44Z</time></trkpt><trkpt lat="44.308820844564494" lon="9.209965674906893"><ele>33.99999999999999</ele><time>2026-05-02T12:20:48.999Z</time></trkpt><trkpt lat="44.30887609144278" lon="9.210009883066219"><ele>34.0</ele><time>2026-05-02T12:20:53.999Z</time></trkpt><trkpt lat="44.308951924657435" lon="9.210036235059755"><ele>34.0</ele><time>2026-05-02T12:20:58.999Z</time></trkpt><trkpt lat="44.30903313725441" lon="9.210056173955152"><ele>34.0</ele><time>2026-05-02T12:21:03.999Z</time></trkpt><trkpt lat="44.309095921743584" lon="9.21004040691401"><ele>34.0</ele><time>2026-05-02T12:21:08.999Z</time></trkpt><trkpt lat="44.30915238156199" lon="9.210000330661254"><ele>33.99999999999999</ele><time>2026-05-02T12:21:13.999Z</time></trkpt><trkpt lat="44.30921692764665" lon="9.210006425357"><ele>34.0</ele><time>2026-05-02T12:21:20.999Z</time></trkpt><trkpt lat="44.30928237216965" lon="9.209993086561951"><ele>35.99999999999999</ele><time>2026-05-02T12:21:28.999Z</time></trkpt><trkpt lat="44.30933579013135" lon="9.209940742824362"><ele>38.0</ele><time>2026-05-02T12:21:36.999Z</time></trkpt><trkpt lat="44.30940099040975" lon="9.209883735744782"><ele>40.0</ele><time>2026-05-02T12:21:44Z</time></trkpt><trkpt lat="44.30944100501162" lon="9.209806293839486"><ele>42.0</ele><time>2026-05-02T12:21:52Z</time></trkpt><trkpt lat="44.309479768171386" lon="9.20973692485385"><ele>44.0</ele><time>2026-05-02T12:21:57Z</time></trkpt><trkpt lat="44.30953229866025" lon="9.209671601847592"><ele>45.99999999999999</ele><time>2026-05-02T12:22:03Z</time></trkpt><trkpt lat="44.30958092219774" lon="9.209589912472628"><ele>48.0</ele><time>2026-05-02T12:22:10Z</time></trkpt><trkpt lat="44.30963637994457" lon="9.209527085002065"><ele>47.99999999999999</ele><time>2026-05-02T12:22:17Z</time></trkpt><trkpt lat="44.3097063991488" lon="9.209470519502107"><ele>48.0</ele><time>2026-05-02T12:22:23Z</time></trkpt><trkpt lat="44.30977117996995" lon="9.209433664314412"><ele>48.0</ele><time>2026-05-02T12:22:28Z</time></trkpt><trkpt lat="44.30981431987779" lon="9.209357436928965"><ele>48.0</ele><time>2026-05-02T12:22:33Z</time></trkpt><trkpt lat="44.30987505198767" lon="9.209295208582017"><ele>48.0</ele><time>2026-05-02T12:22:39Z</time></trkpt><trkpt lat="44.309942220579416" lon="9.209267885479894"><ele>47.99999999999999</ele><time>2026-05-02T12:22:45Z</time></trkpt><trkpt lat="44.31000521218231" lon="9.20922975128171"><ele>48.0</ele><time>2026-05-02T12:22:50.999Z</time></trkpt><trkpt lat="44.310077270553414" lon="9.209227126456836"><ele>50.14285714285714</ele><time>2026-05-02T12:22:55.999Z</time></trkpt><trkpt lat="44.31013705467834" lon="9.209185426697822"><ele>52.285714285714285</ele><time>2026-05-02T12:23:01.999Z</time></trkpt><trkpt lat="44.31019609496613" lon="9.209136670777424"><ele>54.42857142857143</ele><time>2026-05-02T12:23:09.999Z</time></trkpt><trkpt lat="44.31025965064916" lon="9.209120521768549"><ele>56.57142857142857</ele><time>2026-05-02T12:23:17.999Z</time></trkpt><trkpt lat="44.310316924317064" lon="9.2090694238821"><ele>58.714285714285715</ele><time>2026-05-02T12:23:26.999Z</time></trkpt><trkpt lat="44.31037431838602" lon="9.209018971310668"><ele>60.857142857142854</ele><time>2026-05-02T12:23:33.999Z</time></trkpt><trkpt lat="44.310427018959764" lon="9.208969972249665"><ele>63.0</ele><time>2026-05-02T12:23:39.999Z</time></trkpt><trkpt lat="44.31047087270789" lon="9.208894956808122"><ele>63.0</ele><time>2026-05-02T12:23:45.999Z</time></trkpt><trkpt lat="44.31052964160146" lon="9.208828085911863"><ele>63.0</ele><time>2026-05-02T12:23:52Z</time></trkpt><trkpt lat="44.310576061647836" lon="9.208767332993574"><ele>63.0</ele><time>2026-05-02T12:23:58Z</time></trkpt><trkpt lat="44.3106373432151" lon="9.208732456820078"><ele>63.0</ele><time>2026-05-02T12:24:06Z</time></trkpt><trkpt lat="44.31070648515325" lon="9.208721459096122"><ele>63.0</ele><time>2026-05-02T12:24:11Z</time></trkpt><trkpt lat="44.31077970454768" lon="9.208734726359548"><ele>63.0</ele><time>2026-05-02T12:24:18Z</time></trkpt><trkpt lat="44.31084801912611" lon="9.208787020991913"><ele>63.0</ele><time>2026-05-02T12:24:25Z</time></trkpt><trkpt lat="44.31089491235835" lon="9.208858368498241"><ele>57.142857142857146</ele><time>2026-05-02T12:24:32Z</time></trkpt><trkpt lat="44.3109496962566" lon="9.208915526330065"><ele>51.285714285714285</ele><time>2026-05-02T12:24:40Z</time></trkpt><trkpt lat="44.31099626765548" lon="9.208979221179804"><ele>45.42857142857143</ele><time>2026-05-02T12:24:47Z</time></trkpt><trkpt lat="44.31105622726442" lon="9.209030831678167"><ele>39.57142857142857</ele><time>2026-05-02T12:24:53Z</time></trkpt><trkpt lat="44.31113080239896" lon="9.20908251848186"><ele>33.714285714285715</ele><time>2026-05-02T12:25:02.999Z</time></trkpt><trkpt lat="44.31119928868976" lon="9.20907228200319"><ele>27.857142857142858</ele><time>2026-05-02T12:25:05.999Z</time></trkpt><trkpt lat="44.311216770386" lon="9.209164093933893"><ele>22.0</ele><time>2026-05-02T12:25:13.999Z</time></trkpt><trkpt lat="44.311281020537834" lon="9.209227367537673"><ele>21.714285714285715</ele><time>2026-05-02T12:25:17.999Z</time></trkpt><trkpt lat="44.31131513904676" lon="9.209305535830747"><ele>21.428571428571427</ele><time>2026-05-02T12:25:25.999Z</time></trkpt><trkpt lat="44.31137349452729" lon="9.209365857621332"><ele>21.142857142857142</ele><time>2026-05-02T12:25:30.999Z</time></trkpt><trkpt lat="44.311443005713535" lon="9.209422379174557"><ele>20.857142857142858</ele><time>2026-05-02T12:25:33.999Z</time></trkpt><trkpt lat="44.31144250268776" lon="9.209538502834448"><ele>20.571428571428573</ele><time>2026-05-02T12:25:40.999Z</time></trkpt><trkpt lat="44.31147274295992" lon="9.20962969366794"><ele>20.285714285714285</ele><time>2026-05-02T12:25:55Z</time></trkpt><trkpt lat="44.31144083463856" lon="9.209706849148786"><ele>20.0</ele><time>2026-05-02T12:26:02Z</time></trkpt><trkpt lat="44.31142732071845" lon="9.209793014424841"><ele>21.857142857142858</ele><time>2026-05-02T12:26:09Z</time></trkpt><trkpt lat="44.311419363982864" lon="9.209882917161488"><ele>23.714285714285715</ele><time>2026-05-02T12:26:17Z</time></trkpt><trkpt lat="44.3114075129374" lon="9.20996966341913"><ele>25.57142857142857</ele><time>2026-05-02T12:26:23Z</time></trkpt><trkpt lat="44.311384257360814" lon="9.210060583187735"><ele>27.42857142857143</ele><time>2026-05-02T12:26:30Z</time></trkpt><trkpt lat="44.31135098348633" lon="9.210139247892414"><ele>29.28571428571429</ele><time>2026-05-02T12:26:37Z</time></trkpt><trkpt lat="44.31130099163355" lon="9.210213081368405"><ele>31.142857142857142</ele><time>2026-05-02T12:26:45Z</time></trkpt><trkpt lat="44.31126292829067" lon="9.210283642413353"><ele>33.0</ele><time>2026-05-02T12:26:51Z</time></trkpt><trkpt lat="44.31122762933147" lon="9.210367467856733"><ele>29.857142857142858</ele><time>2026-05-02T12:26:58Z</time></trkpt><trkpt lat="44.31119309866939" lon="9.21044689637554"><ele>26.714285714285715</ele><time>2026-05-02T12:27:04Z</time></trkpt><trkpt lat="44.31113414968011" lon="9.210495275572711"><ele>23.571428571428573</ele><time>2026-05-02T12:27:13.999Z</time></trkpt><trkpt lat="44.31110255344862" lon="9.21057983083563"><ele>20.428571428571427</ele><time>2026-05-02T12:27:20.999Z</time></trkpt><trkpt lat="44.3110682041309" lon="9.210671797005404"><ele>17.285714285714285</ele><time>2026-05-02T12:27:27.999Z</time></trkpt><trkpt lat="44.31103422891169" lon="9.210746668443198"><ele>14.142857142857142</ele><time>2026-05-02T12:27:32.999Z</time></trkpt><trkpt lat="44.31099347744621" lon="9.21081852596314"><ele>11.0</ele><time>2026-05-02T12:27:40.999Z</time></trkpt><trkpt lat="44.31097465580368" lon="9.21091919854946"><ele>11.0</ele><time>2026-05-02T12:27:48.999Z</time></trkpt><trkpt lat="44.31092683385737" lon="9.210997026862533"><ele>11.0</ele><time>2026-05-02T12:27:54.999Z</time></trkpt><trkpt lat="44.31089763324857" lon="9.21108579543547"><ele>11.0</ele><time>2026-05-02T12:28:03Z</time></trkpt><trkpt lat="44.31085744524243" lon="9.211170515356336"><ele>11.0</ele><time>2026-05-02T12:28:09Z</time></trkpt><trkpt lat="44.310828377448765" lon="9.211251324419264"><ele>11.0</ele><time>2026-05-02T12:28:14Z</time></trkpt><trkpt lat="44.310816496121504" lon="9.211340288864967"><ele>11.0</ele><time>2026-05-02T12:28:19Z</time></trkpt><trkpt lat="44.310793761563666" lon="9.21142790113946"><ele>11.0</ele><time>2026-05-02T12:28:25Z</time></trkpt><trkpt lat="44.310781263942054" lon="9.211527071471428"><ele>12.428571428571429</ele><time>2026-05-02T12:28:33Z</time></trkpt><trkpt lat="44.31075553232389" lon="9.211616354562324"><ele>13.857142857142858</ele><time>2026-05-02T12:28:48Z</time></trkpt><trkpt lat="44.31074136090257" lon="9.211704397612909"><ele>15.285714285714285</ele><time>2026-05-02T12:28:53Z</time></trkpt><trkpt lat="44.310741073485985" lon="9.211798761490643"><ele>16.714285714285715</ele><time>2026-05-02T12:28:58Z</time></trkpt><trkpt lat="44.31073393275229" lon="9.211897339373177"><ele>18.142857142857142</ele><time>2026-05-02T12:29:04Z</time></trkpt><trkpt lat="44.31073443046004" lon="9.211986765595567"><ele>19.571428571428573</ele><time>2026-05-02T12:29:11Z</time></trkpt><trkpt lat="44.31074139912487" lon="9.212082296046717"><ele>21.0</ele><time>2026-05-02T12:29:19Z</time></trkpt><trkpt lat="44.310771681036286" lon="9.212163481459855"><ele>21.0</ele><time>2026-05-02T12:29:25.999Z</time></trkpt><trkpt lat="44.31082023767771" lon="9.212259153942359"><ele>21.0</ele><time>2026-05-02T12:29:31.999Z</time></trkpt><trkpt lat="44.310846586176886" lon="9.212348504444508"><ele>21.0</ele><time>2026-05-02T12:29:41.999Z</time></trkpt><trkpt lat="44.31091141768613" lon="9.212379595795719"><ele>21.0</ele><time>2026-05-02T12:29:48.999Z</time></trkpt><trkpt lat="44.3109763934713" lon="9.212368203403232"><ele>21.0</ele><time>2026-05-02T12:29:51.999Z</time></trkpt><trkpt lat="44.31103989300921" lon="9.212341905635103"><ele>21.0</ele><time>2026-05-02T12:29:55.999Z</time></trkpt><trkpt lat="44.31111595590736" lon="9.212318526205665"><ele>21.0</ele><time>2026-05-02T12:29:58.999Z</time></trkpt><trkpt lat="44.31118054923129" lon="9.21238241237694"><ele>20.428571428571427</ele><time>2026-05-02T12:30:01.999Z</time></trkpt><trkpt lat="44.31118359387407" lon="9.212476304527502"><ele>19.857142857142858</ele><time>2026-05-02T12:30:08Z</time></trkpt><trkpt lat="44.31124664633481" lon="9.212532017984621"><ele>19.285714285714285</ele><time>2026-05-02T12:30:17Z</time></trkpt><trkpt lat="44.31130926067216" lon="9.212547431415924"><ele>18.714285714285715</ele><time>2026-05-02T12:30:25Z</time></trkpt><trkpt lat="44.311379300073604" lon="9.212558656267772"><ele>18.142857142857142</ele><time>2026-05-02T12:30:31Z</time></trkpt><trkpt lat="44.311450780268906" lon="9.212587937256213"><ele>17.57142857142857</ele><time>2026-05-02T12:30:38Z</time></trkpt><trkpt lat="44.31152027585477" lon="9.212595948893641"><ele>17.0</ele><time>2026-05-02T12:30:44Z</time></trkpt><trkpt lat="44.31158338299437" lon="9.212639251200345"><ele>16.999999999999996</ele><time>2026-05-02T12:30:50Z</time></trkpt><trkpt lat="44.31159206896644" lon="9.212550380787498"><ele>17.0</ele><time>2026-05-02T12:34:55Z</time></trkpt><trkpt lat="44.311533757013954" lon="9.212496721075107"><ele>17.0</ele><time>2026-05-02T12:35:04Z</time></trkpt><trkpt lat="44.31146060235913" lon="9.212483732984914"><ele>17.0</ele><time>2026-05-02T12:35:13Z</time></trkpt><trkpt lat="44.31140760753237" lon="9.212431622917189"><ele>17.0</ele><time>2026-05-02T12:35:21Z</time></trkpt><trkpt lat="44.311333803509555" lon="9.21241539692231"><ele>16.999999999999996</ele><time>2026-05-02T12:35:27Z</time></trkpt><trkpt lat="44.31126146093962" lon="9.212376311889425"><ele>17.0</ele><time>2026-05-02T12:35:31Z</time></trkpt><trkpt lat="44.311190544003004" lon="9.212316868065285"><ele>17.57142857142857</ele><time>2026-05-02T12:35:39.999Z</time></trkpt><trkpt lat="44.31115579020455" lon="9.212213016007873"><ele>18.142857142857142</ele><time>2026-05-02T12:35:43.999Z</time></trkpt><trkpt lat="44.311086491539164" lon="9.212179669296322"><ele>18.714285714285715</ele><time>2026-05-02T12:35:47.999Z</time></trkpt><trkpt lat="44.311004952295235" lon="9.212204033217446"><ele>19.285714285714285</ele><time>2026-05-02T12:35:51.999Z</time></trkpt><trkpt lat="44.31094706120057" lon="9.212251118335105"><ele>19.857142857142858</ele><time>2026-05-02T12:35:56.999Z</time></trkpt><trkpt lat="44.31088391147923" lon="9.212267957047576"><ele>20.428571428571427</ele><time>2026-05-02T12:36:00.999Z</time></trkpt><trkpt lat="44.31084593495774" lon="9.212193457715955"><ele>21.0</ele><time>2026-05-02T12:36:08.999Z</time></trkpt><trkpt lat="44.31081157398853" lon="9.212113012495138"><ele>21.0</ele><time>2026-05-02T12:36:17.999Z</time></trkpt><trkpt lat="44.31079399154894" lon="9.21202163055634"><ele>21.0</ele><time>2026-05-02T12:36:24Z</time></trkpt><trkpt lat="44.31078047520923" lon="9.211922822612577"><ele>21.0</ele><time>2026-05-02T12:36:30Z</time></trkpt><trkpt lat="44.310791886906415" lon="9.211835915540806"><ele>21.0</ele><time>2026-05-02T12:36:36Z</time></trkpt><trkpt lat="44.310799534765664" lon="9.211743747332134"><ele>21.0</ele><time>2026-05-02T12:36:42Z</time></trkpt><trkpt lat="44.31082051683365" lon="9.21165134459273"><ele>21.0</ele><time>2026-05-02T12:36:49Z</time></trkpt><trkpt lat="44.31083112882879" lon="9.211552221149525"><ele>21.0</ele><time>2026-05-02T12:36:56Z</time></trkpt><trkpt lat="44.31084236213582" lon="9.21146438241141"><ele>19.571428571428573</ele><time>2026-05-02T12:37:00Z</time></trkpt><trkpt lat="44.31086686075128" lon="9.211375714354315"><ele>18.142857142857142</ele><time>2026-05-02T12:37:05Z</time></trkpt><trkpt lat="44.31089360008765" lon="9.211280906050925"><ele>16.714285714285715</ele><time>2026-05-02T12:37:11Z</time></trkpt><trkpt lat="44.310920027298714" lon="9.211196824321446"><ele>15.285714285714285</ele><time>2026-05-02T12:37:17Z</time></trkpt><trkpt lat="44.31098098294248" lon="9.211153358642964"><ele>13.857142857142858</ele><time>2026-05-02T12:37:23Z</time></trkpt><trkpt lat="44.3110396005133" lon="9.211078575086713"><ele>12.428571428571429</ele><time>2026-05-02T12:37:28Z</time></trkpt><trkpt lat="44.31107001489238" lon="9.210997613920112"><ele>11.0</ele><time>2026-05-02T12:37:34Z</time></trkpt><trkpt lat="44.311084300486" lon="9.210890654120103"><ele>11.0</ele><time>2026-05-02T12:37:39.999Z</time></trkpt><trkpt lat="44.311127063120054" lon="9.21081567007233"><ele>11.0</ele><time>2026-05-02T12:37:45.999Z</time></trkpt><trkpt lat="44.311177013769104" lon="9.210737849014762"><ele>11.0</ele><time>2026-05-02T12:37:50.999Z</time></trkpt><trkpt lat="44.31119041753154" lon="9.210650743983084"><ele>11.0</ele><time>2026-05-02T12:37:55.999Z</time></trkpt><trkpt lat="44.311228962599536" lon="9.210571272290037"><ele>11.0</ele><time>2026-05-02T12:38:00.999Z</time></trkpt><trkpt lat="44.31127944775552" lon="9.210489614688617"><ele>11.0</ele><time>2026-05-02T12:38:06.999Z</time></trkpt><trkpt lat="44.311316814404286" lon="9.210407881834652"><ele>11.0</ele><time>2026-05-02T12:38:11.999Z</time></trkpt><trkpt lat="44.311339269743804" lon="9.210314099127187"><ele>9.857142857142858</ele><time>2026-05-02T12:38:17.999Z</time></trkpt><trkpt lat="44.31135465074125" lon="9.210219015668763"><ele>8.714285714285714</ele><time>2026-05-02T12:38:22.999Z</time></trkpt><trkpt lat="44.31138971209232" lon="9.210137193637989"><ele>7.571428571428571</ele><time>2026-05-02T12:38:30Z</time></trkpt><trkpt lat="44.3114188485087" lon="9.210054362766643"><ele>6.428571428571429</ele><time>2026-05-02T12:38:35Z</time></trkpt><trkpt lat="44.31143934562271" lon="9.209957763691081"><ele>5.285714285714286</ele><time>2026-05-02T12:38:42Z</time></trkpt><trkpt lat="44.311460202480674" lon="9.209869229590158"><ele>4.142857142857142</ele><time>2026-05-02T12:38:47Z</time></trkpt><trkpt lat="44.31146448450868" lon="9.209765256213938"><ele>3.0</ele><time>2026-05-02T12:38:55Z</time></trkpt><trkpt lat="44.31145808564861" lon="9.209667387158708"><ele>5.428571428571429</ele><time>2026-05-02T12:39:01Z</time></trkpt><trkpt lat="44.31151678360121" lon="9.209635470569973"><ele>7.857142857142858</ele><time>2026-05-02T12:39:04Z</time></trkpt><trkpt lat="44.311576664187534" lon="9.209551045224226"><ele>10.285714285714285</ele><time>2026-05-02T12:39:10Z</time></trkpt><trkpt lat="44.311570905128804" lon="9.209448544665833"><ele>12.714285714285715</ele><time>2026-05-02T12:39:14Z</time></trkpt><trkpt lat="44.31156867176922" lon="9.20933869828867"><ele>15.142857142857144</ele><time>2026-05-02T12:39:19Z</time></trkpt><trkpt lat="44.311527404100254" lon="9.209264690667567"><ele>17.57142857142857</ele><time>2026-05-02T12:39:23Z</time></trkpt><trkpt lat="44.31154703612622" lon="9.209175821279235"><ele>20.0</ele><time>2026-05-02T12:39:27Z</time></trkpt><trkpt lat="44.31151386493328" lon="9.209087146173989"><ele>20.0</ele><time>2026-05-02T12:39:33Z</time></trkpt><trkpt lat="44.31146670174453" lon="9.209010947923067"><ele>20.0</ele><time>2026-05-02T12:39:39.999Z</time></trkpt><trkpt lat="44.3114320420462" lon="9.208931306538044"><ele>20.0</ele><time>2026-05-02T12:39:45.999Z</time></trkpt><trkpt lat="44.31138114823439" lon="9.208872451930691"><ele>20.0</ele><time>2026-05-02T12:39:50.999Z</time></trkpt><trkpt lat="44.31132600931843" lon="9.208823648639695"><ele>20.0</ele><time>2026-05-02T12:39:56.999Z</time></trkpt><trkpt lat="44.31126280006525" lon="9.208784575846973"><ele>20.0</ele><time>2026-05-02T12:40:00.999Z</time></trkpt><trkpt lat="44.311221700562015" lon="9.20870532906304"><ele>20.0</ele><time>2026-05-02T12:40:05.999Z</time></trkpt><trkpt lat="44.31119505274743" lon="9.208620393852582"><ele>20.285714285714285</ele><time>2026-05-02T12:40:23.999Z</time></trkpt><trkpt lat="44.31123412160753" lon="9.208545216985215"><ele>20.571428571428573</ele><time>2026-05-02T12:40:30.999Z</time></trkpt><trkpt lat="44.31129746697609" lon="9.208510208850488"><ele>20.857142857142858</ele><time>2026-05-02T12:40:38Z</time></trkpt><trkpt lat="44.31123991710635" lon="9.208448756439186"><ele>21.142857142857142</ele><time>2026-05-02T12:41:16Z</time></trkpt><trkpt lat="44.311310596860274" lon="9.20849614907913"><ele>21.428571428571427</ele><time>2026-05-02T12:47:23Z</time></trkpt><trkpt lat="44.311260663534746" lon="9.208434578123086"><ele>21.714285714285715</ele><time>2026-05-02T12:47:45Z</time></trkpt><trkpt lat="44.31126695527628" lon="9.208346064856384"><ele>22.0</ele><time>2026-05-02T12:48:23.999Z</time></trkpt><trkpt lat="44.311276624274264" lon="9.208243282191045"><ele>22.0</ele><time>2026-05-02T12:48:31.999Z</time></trkpt><trkpt lat="44.31124037533177" lon="9.208315496198676"><ele>22.0</ele><time>2026-05-02T12:48:57.999Z</time></trkpt><trkpt lat="44.311223691375005" lon="9.20840726032489"><ele>22.0</ele><time>2026-05-02T12:49:06Z</time></trkpt><trkpt lat="44.31126649917923" lon="9.208500514558624"><ele>22.0</ele><time>2026-05-02T12:49:25Z</time></trkpt><trkpt lat="44.31126723295203" lon="9.208621588044162"><ele>22.0</ele><time>2026-05-02T12:49:27Z</time></trkpt><trkpt lat="44.3113261761819" lon="9.208541100585657"><ele>22.0</ele><time>2026-05-02T12:49:29Z</time></trkpt><trkpt lat="44.31139385719355" lon="9.20851865914478"><ele>22.0</ele><time>2026-05-02T12:49:33Z</time></trkpt><trkpt lat="44.3114369846429" lon="9.20858788732622"><ele>22.166666666666664</ele><time>2026-05-02T12:49:42Z</time></trkpt><trkpt lat="44.31150976359483" lon="9.208575699183564"><ele>22.333333333333332</ele><time>2026-05-02T12:49:52Z</time></trkpt><trkpt lat="44.3115099357978" lon="9.208404338794134"><ele>22.5</ele><time>2026-05-02T12:50:14Z</time></trkpt><trkpt lat="44.31154360689238" lon="9.208317530452904"><ele>22.666666666666668</ele><time>2026-05-02T12:50:28.999Z</time></trkpt><trkpt lat="44.3115903711004" lon="9.20825476088019"><ele>22.833333333333336</ele><time>2026-05-02T12:50:37.999Z</time></trkpt><trkpt lat="44.3116621401115" lon="9.20826259787553"><ele>23.0</ele><time>2026-05-02T13:15:59.999Z</time></trkpt><trkpt lat="44.31173449687034" lon="9.208290467598902"><ele>23.0</ele><time>2026-05-02T13:16:25Z</time></trkpt><trkpt lat="44.311858511050225" lon="9.208265384418056"><ele>23.0</ele><time>2026-05-02T13:18:29Z</time></trkpt><trkpt lat="44.311903456095955" lon="9.2083305785877"><ele>23.0</ele><time>2026-05-02T13:18:46Z</time></trkpt><trkpt lat="44.31197918246812" lon="9.208328997306607"><ele>23.0</ele><time>2026-05-02T13:18:57Z</time></trkpt><trkpt lat="44.31199034022392" lon="9.20822634022181"><ele>23.0</ele><time>2026-05-02T13:19:06Z</time></trkpt><trkpt lat="44.31207543314615" lon="9.20814848313243"><ele>23.0</ele><time>2026-05-02T13:19:52.999Z</time></trkpt><trkpt lat="44.31213085411955" lon="9.208081283366052"><ele>29.0</ele><time>2026-05-02T13:20:10.999Z</time></trkpt><trkpt lat="44.31225748344777" lon="9.208035735027211"><ele>35.0</ele><time>2026-05-02T13:23:18Z</time></trkpt><trkpt lat="44.312321420758515" lon="9.208022681898855"><ele>41.0</ele><time>2026-05-02T13:23:26Z</time></trkpt><trkpt lat="44.31239384301054" lon="9.207923108386195"><ele>47.0</ele><time>2026-05-02T13:23:45Z</time></trkpt><trkpt lat="44.31245235180108" lon="9.20787937829164"><ele>53.00000000000001</ele><time>2026-05-02T13:24:12.999Z</time></trkpt><trkpt lat="44.31249188203856" lon="9.207806192656271"><ele>59.0</ele><time>2026-05-02T13:24:56Z</time></trkpt><trkpt lat="44.31253367511704" lon="9.207729234990705"><ele>59.00000000000001</ele><time>2026-05-02T13:25:12Z</time></trkpt><trkpt lat="44.3125941281657" lon="9.207620494614517"><ele>59.0</ele><time>2026-05-02T13:25:20Z</time></trkpt><trkpt lat="44.312662161050284" lon="9.207645822202483"><ele>59.0</ele><time>2026-05-02T13:25:33Z</time></trkpt><trkpt lat="44.312705729669126" lon="9.207558365402413"><ele>59.0</ele><time>2026-05-02T13:26:36.999Z</time></trkpt><trkpt lat="44.31274956447246" lon="9.20748057390187"><ele>59.00000000000001</ele><time>2026-05-02T13:26:51Z</time></trkpt><trkpt lat="44.31279938622639" lon="9.207414369159435"><ele>59.0</ele><time>2026-05-02T13:27:04Z</time></trkpt><trkpt lat="44.31285142770511" lon="9.207348245502137"><ele>57.857142857142854</ele><time>2026-05-02T13:27:20Z</time></trkpt><trkpt lat="44.31288085105601" lon="9.20726840451694"><ele>56.714285714285715</ele><time>2026-05-02T13:27:32Z</time></trkpt><trkpt lat="44.31293774320555" lon="9.207210296936092"><ele>55.57142857142857</ele><time>2026-05-02T13:27:47Z</time></trkpt><trkpt lat="44.31300120258029" lon="9.207172296066938"><ele>54.42857142857143</ele><time>2026-05-02T13:28:11.999Z</time></trkpt><trkpt lat="44.313058451620925" lon="9.207110219292483"><ele>53.28571428571429</ele><time>2026-05-02T13:28:36.999Z</time></trkpt><trkpt lat="44.31309871703518" lon="9.207035999523246"><ele>52.142857142857146</ele><time>2026-05-02T13:29:55Z</time></trkpt><trkpt lat="44.313158781754886" lon="9.206979709197999"><ele>51.0</ele><time>2026-05-02T13:30:10.999Z</time></trkpt><trkpt lat="44.31322572408801" lon="9.206950615302706"><ele>54.142857142857146</ele><time>2026-05-02T13:30:21.999Z</time></trkpt><trkpt lat="44.31328516460203" lon="9.20690203375881"><ele>57.28571428571429</ele><time>2026-05-02T13:30:38.999Z</time></trkpt><trkpt lat="44.31330046567658" lon="9.206815099217225"><ele>60.42857142857143</ele><time>2026-05-02T13:30:51.999Z</time></trkpt><trkpt lat="44.31332169050165" lon="9.206731600991182"><ele>63.57142857142857</ele><time>2026-05-02T13:31:03Z</time></trkpt><trkpt lat="44.313335721243206" lon="9.20664488201362"><ele>66.71428571428572</ele><time>2026-05-02T13:31:13Z</time></trkpt><trkpt lat="44.31336762122628" lon="9.206556410255288"><ele>69.85714285714286</ele><time>2026-05-02T13:31:26Z</time></trkpt><trkpt lat="44.31341636193057" lon="9.20648610563211"><ele>73.0</ele><time>2026-05-02T13:31:39Z</time></trkpt><trkpt lat="44.31348484610952" lon="9.206502122490274"><ele>75.66666666666666</ele><time>2026-05-02T13:32:13.999Z</time></trkpt><trkpt lat="44.313523296715616" lon="9.206575871523313"><ele>78.33333333333333</ele><time>2026-05-02T13:32:25.999Z</time></trkpt><trkpt lat="44.31358438040631" lon="9.206616900305766"><ele>81.0</ele><time>2026-05-02T13:32:42.999Z</time></trkpt><trkpt lat="44.31365966313105" lon="9.206624951534165"><ele>83.66666666666667</ele><time>2026-05-02T13:32:55.999Z</time></trkpt><trkpt lat="44.31375079704835" lon="9.206613825627453"><ele>86.33333333333334</ele><time>2026-05-02T13:33:18Z</time></trkpt><trkpt lat="44.313816862908766" lon="9.20661485525457"><ele>89.0</ele><time>2026-05-02T13:33:34Z</time></trkpt><trkpt lat="44.313901932467424" lon="9.206642765819883"><ele>91.99999999999999</ele><time>2026-05-02T13:33:50Z</time></trkpt><trkpt lat="44.313917303956025" lon="9.20655425639921"><ele>95.0</ele><time>2026-05-02T13:34:01Z</time></trkpt><trkpt lat="44.31395347752993" lon="9.206475490445722"><ele>98.0</ele><time>2026-05-02T13:34:10Z</time></trkpt><trkpt lat="44.31399985228631" lon="9.206398024263633"><ele>101.0</ele><time>2026-05-02T13:34:20.999Z</time></trkpt><trkpt lat="44.3140309907246" lon="9.206320339976953"><ele>104.0</ele><time>2026-05-02T13:34:42.999Z</time></trkpt><trkpt lat="44.3140631522594" lon="9.206235867439329"><ele>106.99999999999999</ele><time>2026-05-02T13:35:00.999Z</time></trkpt><trkpt lat="44.31411359763745" lon="9.206172551720229"><ele>110.0</ele><time>2026-05-02T13:35:09.999Z</time></trkpt><trkpt lat="44.31417047075187" lon="9.206122440354019"><ele>109.99999999999999</ele><time>2026-05-02T13:35:21Z</time></trkpt><trkpt lat="44.31421447997136" lon="9.206043558187032"><ele>110.0</ele><time>2026-05-02T13:35:29Z</time></trkpt><trkpt lat="44.31425957967834" lon="9.205975363688694"><ele>110.0</ele><time>2026-05-02T13:35:35Z</time></trkpt><trkpt lat="44.31431618680068" lon="9.205927254455055"><ele>110.0</ele><time>2026-05-02T13:35:50Z</time></trkpt><trkpt lat="44.31434064229293" lon="9.206038913076524"><ele>110.0</ele><time>2026-05-02T13:36:03.999Z</time></trkpt><trkpt lat="44.314398454380964" lon="9.20608875935641"><ele>109.99999999999999</ele><time>2026-05-02T13:36:17.999Z</time></trkpt><trkpt lat="44.314451502791044" lon="9.206136730889275"><ele>110.0</ele><time>2026-05-02T13:36:29.999Z</time></trkpt><trkpt lat="44.314457679052765" lon="9.20623142587661"><ele>109.99999999999999</ele><time>2026-05-02T13:36:44.999Z</time></trkpt><trkpt lat="44.3145294802348" lon="9.206243293566008"><ele>110.0</ele><time>2026-05-02T13:36:54.999Z</time></trkpt><trkpt lat="44.3145651923706" lon="9.20631664402789"><ele>110.0</ele><time>2026-05-02T13:37:03.999Z</time></trkpt><trkpt lat="44.31461904197056" lon="9.206365052174805"><ele>110.0</ele><time>2026-05-02T13:37:10.999Z</time></trkpt><trkpt lat="44.31466863215648" lon="9.206433405462215"><ele>110.0</ele><time>2026-05-02T13:37:18.999Z</time></trkpt><trkpt lat="44.31471135995121" lon="9.206520625799417"><ele>109.99999999999999</ele><time>2026-05-02T13:37:25.999Z</time></trkpt><trkpt lat="44.31475267571871" lon="9.206608620254912"><ele>110.0</ele><time>2026-05-02T13:37:42Z</time></trkpt><trkpt lat="44.31480059293834" lon="9.206677083885365"><ele>114.57142857142856</ele><time>2026-05-02T13:37:53Z</time></trkpt><trkpt lat="44.31486481769716" lon="9.206723933817658"><ele>119.14285714285714</ele><time>2026-05-02T13:37:58.999Z</time></trkpt><trkpt lat="44.314929128422094" lon="9.206721700477576"><ele>123.71428571428571</ele><time>2026-05-02T13:38:09.999Z</time></trkpt><trkpt lat="44.31499347825192" lon="9.206713016339345"><ele>128.28571428571428</ele><time>2026-05-02T13:38:19.999Z</time></trkpt><trkpt lat="44.31506925960737" lon="9.20671637817727"><ele>132.85714285714283</ele><time>2026-05-02T13:38:28.999Z</time></trkpt><trkpt lat="44.31513478285933" lon="9.2067034709345"><ele>137.42857142857142</ele><time>2026-05-02T13:38:37.999Z</time></trkpt><trkpt lat="44.31519678058459" lon="9.206744450028816"><ele>142.0</ele><time>2026-05-02T13:38:50.999Z</time></trkpt><trkpt lat="44.31520634103766" lon="9.206832857870271"><ele>142.0</ele><time>2026-05-02T13:39:02.999Z</time></trkpt><trkpt lat="44.31523716547057" lon="9.206913808476356"><ele>142.0</ele><time>2026-05-02T13:40:42.999Z</time></trkpt><trkpt lat="44.31525326438696" lon="9.207001413466422"><ele>142.0</ele><time>2026-05-02T13:40:54.999Z</time></trkpt><trkpt lat="44.315282880877284" lon="9.207112378025396"><ele>142.0</ele><time>2026-05-02T13:41:11.999Z</time></trkpt><trkpt lat="44.315287953116005" lon="9.207210383766956"><ele>142.0</ele><time>2026-05-02T13:41:22.999Z</time></trkpt><trkpt lat="44.31531795066213" lon="9.207315672687317"><ele>142.0</ele><time>2026-05-02T13:41:34Z</time></trkpt><trkpt lat="44.31532164433032" lon="9.207405093679323"><ele>142.0</ele><time>2026-05-02T13:41:45Z</time></trkpt><trkpt lat="44.31538652791214" lon="9.207441224479899"><ele>144.83333333333334</ele><time>2026-05-02T13:41:52Z</time></trkpt><trkpt lat="44.31545956528265" lon="9.207444647280184"><ele>147.66666666666669</ele><time>2026-05-02T13:48:37Z</time></trkpt><trkpt lat="44.31551846150298" lon="9.207385837294536"><ele>150.5</ele><time>2026-05-02T13:48:47Z</time></trkpt><trkpt lat="44.31564542060474" lon="9.207388470355486"><ele>153.33333333333334</ele><time>2026-05-02T13:49:03Z</time></trkpt><trkpt lat="44.315710492898596" lon="9.207417955045829"><ele>156.16666666666666</ele><time>2026-05-02T13:49:13Z</time></trkpt><trkpt lat="44.315768713711265" lon="9.207380610724275"><ele>159.0</ele><time>2026-05-02T13:49:23Z</time></trkpt><trkpt lat="44.315829167768705" lon="9.207352870270237"><ele>159.42857142857142</ele><time>2026-05-02T13:49:30.999Z</time></trkpt><trkpt lat="44.31588982277247" lon="9.20729576531153"><ele>159.85714285714286</ele><time>2026-05-02T13:49:37.999Z</time></trkpt><trkpt lat="44.31595647289592" lon="9.207284672461167"><ele>160.28571428571428</ele><time>2026-05-02T13:49:47.999Z</time></trkpt><trkpt lat="44.31601722566694" lon="9.207224509146899"><ele>160.71428571428572</ele><time>2026-05-02T13:50:00Z</time></trkpt><trkpt lat="44.31609215290167" lon="9.207187043623732"><ele>161.14285714285714</ele><time>2026-05-02T13:50:11Z</time></trkpt><trkpt lat="44.316157980004654" lon="9.207166465661183"><ele>161.57142857142858</ele><time>2026-05-02T13:50:25Z</time></trkpt><trkpt lat="44.3162272359181" lon="9.20713962474393"><ele>162.0</ele><time>2026-05-02T13:50:39Z</time></trkpt><trkpt lat="44.31629691481332" lon="9.20714375319921"><ele>162.0</ele><time>2026-05-02T13:50:48Z</time></trkpt><trkpt lat="44.31634698223839" lon="9.20707904660189"><ele>162.0</ele><time>2026-05-02T13:51:02Z</time></trkpt><trkpt lat="44.316407543102294" lon="9.207109546910228"><ele>162.0</ele><time>2026-05-02T13:51:14Z</time></trkpt><trkpt lat="44.316468564059164" lon="9.207133398539206"><ele>162.0</ele><time>2026-05-02T13:51:21Z</time></trkpt><trkpt lat="44.316531228460526" lon="9.207091180399052"><ele>162.0</ele><time>2026-05-02T13:51:26.999Z</time></trkpt><trkpt lat="44.31658938816128" lon="9.207034919799883"><ele>162.0</ele><time>2026-05-02T13:52:20Z</time></trkpt><trkpt lat="44.316656957421095" lon="9.20702109160508"><ele>162.0</ele><time>2026-05-02T13:52:39Z</time></trkpt><trkpt lat="44.31671852648635" lon="9.206989831890084"><ele>166.42857142857144</ele><time>2026-05-02T13:52:45Z</time></trkpt><trkpt lat="44.31678769767724" lon="9.206938412014727"><ele>170.85714285714286</ele><time>2026-05-02T13:52:51Z</time></trkpt><trkpt lat="44.31685322216709" lon="9.206925327386092"><ele>175.28571428571428</ele><time>2026-05-02T13:53:47.999Z</time></trkpt><trkpt lat="44.316914941488704" lon="9.206889459519553"><ele>179.71428571428572</ele><time>2026-05-02T13:53:53.999Z</time></trkpt><trkpt lat="44.31698958599709" lon="9.206882778650966"><ele>184.14285714285714</ele><time>2026-05-02T13:54:00.999Z</time></trkpt><trkpt lat="44.31705357887861" lon="9.206878785622138"><ele>188.57142857142858</ele><time>2026-05-02T13:54:07Z</time></trkpt><trkpt lat="44.317120207585546" lon="9.206874906628634"><ele>193.0</ele><time>2026-05-02T13:54:11Z</time></trkpt><trkpt lat="44.31718758422531" lon="9.206814592783992"><ele>194.42857142857144</ele><time>2026-05-02T13:54:16Z</time></trkpt><trkpt lat="44.31725855041154" lon="9.206795548636089"><ele>195.85714285714286</ele><time>2026-05-02T13:54:22Z</time></trkpt><trkpt lat="44.3173203943731" lon="9.206828798698442"><ele>197.28571428571428</ele><time>2026-05-02T13:54:27Z</time></trkpt><trkpt lat="44.31739434114112" lon="9.206844007113066"><ele>198.71428571428572</ele><time>2026-05-02T13:54:33Z</time></trkpt><trkpt lat="44.31746595195598" lon="9.206872190950415"><ele>200.14285714285714</ele><time>2026-05-02T13:54:39Z</time></trkpt><trkpt lat="44.317531617524146" lon="9.206866231354718"><ele>201.57142857142858</ele><time>2026-05-02T13:54:44Z</time></trkpt><trkpt lat="44.3176042902919" lon="9.206889793938663"><ele>203.0</ele><time>2026-05-02T13:54:50Z</time></trkpt><trkpt lat="44.31767333965417" lon="9.206897381286304"><ele>203.0</ele><time>2026-05-02T13:54:56Z</time></trkpt><trkpt lat="44.31773507234467" lon="9.206920121325702"><ele>203.0</ele><time>2026-05-02T13:55:02Z</time></trkpt><trkpt lat="44.31779838099362" lon="9.206933849827111"><ele>203.0</ele><time>2026-05-02T13:55:09Z</time></trkpt><trkpt lat="44.3178532394356" lon="9.206994114174575"><ele>203.0</ele><time>2026-05-02T13:55:14Z</time></trkpt><trkpt lat="44.31792441428286" lon="9.207023628074845"><ele>203.0</ele><time>2026-05-02T13:55:20Z</time></trkpt><trkpt lat="44.31797767279189" lon="9.207074827606784"><ele>203.0</ele><time>2026-05-02T13:55:25Z</time></trkpt><trkpt lat="44.31804279674569" lon="9.207073745363745"><ele>203.0</ele><time>2026-05-02T13:55:29Z</time></trkpt><trkpt lat="44.31811173759368" lon="9.207077537714262"><ele>201.42857142857142</ele><time>2026-05-02T13:55:35Z</time></trkpt><trkpt lat="44.31818193299518" lon="9.207089039981492"><ele>199.85714285714286</ele><time>2026-05-02T13:55:39.999Z</time></trkpt><trkpt lat="44.318243951450896" lon="9.20710730678643"><ele>198.28571428571428</ele><time>2026-05-02T13:55:44.999Z</time></trkpt><trkpt lat="44.31831544108988" lon="9.207077745926613"><ele>196.71428571428572</ele><time>2026-05-02T13:55:49.999Z</time></trkpt><trkpt lat="44.31837911278604" lon="9.207056374325822"><ele>195.14285714285714</ele><time>2026-05-02T13:55:54.999Z</time></trkpt><trkpt lat="44.31843310987846" lon="9.207111536802538"><ele>193.57142857142856</ele><time>2026-05-02T13:56:00.999Z</time></trkpt><trkpt lat="44.318489454910285" lon="9.207165050335888"><ele>192.0</ele><time>2026-05-02T13:56:06.999Z</time></trkpt><trkpt lat="44.31854678022257" lon="9.207219485424195"><ele>191.99999999999997</ele><time>2026-05-02T13:56:14Z</time></trkpt><trkpt lat="44.31862261584382" lon="9.207232786677531"><ele>192.0</ele><time>2026-05-02T13:56:20Z</time></trkpt><trkpt lat="44.31868870900755" lon="9.207257930214498"><ele>192.0</ele><time>2026-05-02T13:56:26Z</time></trkpt><trkpt lat="44.3187503095359" lon="9.207285207485238"><ele>192.0</ele><time>2026-05-02T13:56:32Z</time></trkpt><trkpt lat="44.31881575145741" lon="9.207285246093194"><ele>192.0</ele><time>2026-05-02T13:56:38Z</time></trkpt><trkpt lat="44.31888684291352" lon="9.20728704439933"><ele>191.99999999999997</ele><time>2026-05-02T13:56:44Z</time></trkpt><trkpt lat="44.31895068349533" lon="9.207311260134942"><ele>192.0</ele><time>2026-05-02T13:56:51Z</time></trkpt><trkpt lat="44.31901779490648" lon="9.20729486846278"><ele>193.42857142857142</ele><time>2026-05-02T13:56:56Z</time></trkpt><trkpt lat="44.319084716339916" lon="9.20728523728344"><ele>194.85714285714286</ele><time>2026-05-02T13:57:02Z</time></trkpt><trkpt lat="44.319155302219336" lon="9.207261752207925"><ele>196.28571428571428</ele><time>2026-05-02T13:57:07Z</time></trkpt><trkpt lat="44.319218864028024" lon="9.20723391037985"><ele>197.71428571428572</ele><time>2026-05-02T13:57:13Z</time></trkpt><trkpt lat="44.31928412532665" lon="9.207220917095695"><ele>199.14285714285714</ele><time>2026-05-02T13:57:19Z</time></trkpt><trkpt lat="44.319348261293065" lon="9.20725089114134"><ele>200.57142857142856</ele><time>2026-05-02T13:57:23Z</time></trkpt><trkpt lat="44.31941455755866" lon="9.207270024773988"><ele>202.0</ele><time>2026-05-02T13:57:29Z</time></trkpt><trkpt lat="44.31948378333456" lon="9.207300225858367"><ele>197.28571428571428</ele><time>2026-05-02T13:57:34Z</time></trkpt><trkpt lat="44.319545465868174" lon="9.207328299777743"><ele>192.57142857142856</ele><time>2026-05-02T13:57:38.999Z</time></trkpt><trkpt lat="44.31961411888969" lon="9.207366681894632"><ele>187.85714285714286</ele><time>2026-05-02T13:57:44.999Z</time></trkpt><trkpt lat="44.319681362493014" lon="9.207364388498185"><ele>183.14285714285714</ele><time>2026-05-02T13:57:49.999Z</time></trkpt><trkpt lat="44.31974998060469" lon="9.207354700631273"><ele>178.42857142857142</ele><time>2026-05-02T13:57:54.999Z</time></trkpt><trkpt lat="44.319818718409266" lon="9.207367117989612"><ele>173.71428571428572</ele><time>2026-05-02T13:58:00.999Z</time></trkpt><trkpt lat="44.31987725343411" lon="9.207402346290424"><ele>169.0</ele><time>2026-05-02T13:58:06.999Z</time></trkpt><trkpt lat="44.31993277611488" lon="9.207472951737975"><ele>169.0</ele><time>2026-05-02T13:58:16.999Z</time></trkpt><trkpt lat="44.319974029020365" lon="9.207564374542129"><ele>169.0</ele><time>2026-05-02T13:58:27Z</time></trkpt><trkpt lat="44.32002636164781" lon="9.207632986534083"><ele>169.0</ele><time>2026-05-02T13:58:33Z</time></trkpt><trkpt lat="44.320084383077514" lon="9.207703561518526"><ele>169.0</ele><time>2026-05-02T13:58:40Z</time></trkpt><trkpt lat="44.32014281166675" lon="9.207755064997313"><ele>169.0</ele><time>2026-05-02T13:58:53Z</time></trkpt><trkpt lat="44.32018994731462" lon="9.20783941594914"><ele>169.0</ele><time>2026-05-02T13:59:01Z</time></trkpt><trkpt lat="44.320247126576795" lon="9.207881375679984"><ele>169.0</ele><time>2026-05-02T13:59:07Z</time></trkpt><trkpt lat="44.32029788359926" lon="9.20794276114534"><ele>169.0</ele><time>2026-05-02T13:59:14Z</time></trkpt><trkpt lat="44.3203439201669" lon="9.208006345528865"><ele>169.0</ele><time>2026-05-02T13:59:20Z</time></trkpt><trkpt lat="44.32040285338029" lon="9.208076925355241"><ele>169.0</ele><time>2026-05-02T13:59:26Z</time></trkpt><trkpt lat="44.32044639871403" lon="9.20814580204345"><ele>169.0</ele><time>2026-05-02T13:59:32Z</time></trkpt><trkpt lat="44.32050727207956" lon="9.208197378933232"><ele>169.0</ele><time>2026-05-02T13:59:44Z</time></trkpt><trkpt lat="44.320541784722316" lon="9.208274701136228"><ele>169.0</ele><time>2026-05-02T13:59:59.999Z</time></trkpt><trkpt lat="44.32056117162455" lon="9.208360808681075"><ele>169.0</ele><time>2026-05-02T14:00:08.999Z</time></trkpt><trkpt lat="44.320579461153145" lon="9.208446169956671"><ele>165.57142857142858</ele><time>2026-05-02T14:00:16.999Z</time></trkpt><trkpt lat="44.32060948770652" lon="9.208523507146191"><ele>162.14285714285714</ele><time>2026-05-02T14:00:27Z</time></trkpt><trkpt lat="44.32064225294901" lon="9.208602572235286"><ele>158.71428571428572</ele><time>2026-05-02T14:00:39Z</time></trkpt><trkpt lat="44.320668978737174" lon="9.208696448160628"><ele>155.28571428571428</ele><time>2026-05-02T14:00:47Z</time></trkpt><trkpt lat="44.320708257702876" lon="9.208781936470853"><ele>151.85714285714286</ele><time>2026-05-02T14:00:54Z</time></trkpt><trkpt lat="44.32076889754706" lon="9.208839805090722"><ele>148.42857142857144</ele><time>2026-05-02T14:00:59Z</time></trkpt><trkpt lat="44.32080300785662" lon="9.208914576227086"><ele>145.0</ele><time>2026-05-02T14:01:04Z</time></trkpt><trkpt lat="44.320825623744824" lon="9.208998266653605"><ele>143.14285714285714</ele><time>2026-05-02T14:01:10Z</time></trkpt><trkpt lat="44.32087300529174" lon="9.209068715628531"><ele>141.2857142857143</ele><time>2026-05-02T14:01:20Z</time></trkpt><trkpt lat="44.320939063098" lon="9.209076118077453"><ele>139.42857142857144</ele><time>2026-05-02T14:01:30Z</time></trkpt><trkpt lat="44.321003053261315" lon="9.20911194357777"><ele>137.57142857142858</ele><time>2026-05-02T14:01:38Z</time></trkpt><trkpt lat="44.32107463244572" lon="9.209115542940422"><ele>135.71428571428572</ele><time>2026-05-02T14:01:45Z</time></trkpt><trkpt lat="44.32114261753521" lon="9.20912554418559"><ele>133.85714285714286</ele><time>2026-05-02T14:01:51Z</time></trkpt><trkpt lat="44.321215794983424" lon="9.209118485261243"><ele>132.0</ele><time>2026-05-02T14:01:56.999Z</time></trkpt><trkpt lat="44.321259346257676" lon="9.209183317296842"><ele>132.0</ele><time>2026-05-02T14:02:05.999Z</time></trkpt><trkpt lat="44.32130814375109" lon="9.209254613575062"><ele>132.0</ele><time>2026-05-02T14:02:11.999Z</time></trkpt><trkpt lat="44.321379456198876" lon="9.209250059840647"><ele>132.0</ele><time>2026-05-02T14:02:20.999Z</time></trkpt><trkpt lat="44.32144521629477" lon="9.20920749608759"><ele>132.0</ele><time>2026-05-02T14:02:27.999Z</time></trkpt><trkpt lat="44.32149449126034" lon="9.209128023451889"><ele>132.0</ele><time>2026-05-02T14:02:36Z</time></trkpt><trkpt lat="44.32151216925843" lon="9.2092191674731"><ele>132.0</ele><time>2026-05-02T14:02:48Z</time></trkpt><trkpt lat="44.32155078838119" lon="9.209300946638288"><ele>132.0</ele><time>2026-05-02T14:02:56Z</time></trkpt><trkpt lat="44.32156296810984" lon="9.209400542065213"><ele>130.85714285714286</ele><time>2026-05-02T14:03:03Z</time></trkpt><trkpt lat="44.32159192167671" lon="9.209496270709383"><ele>129.71428571428572</ele><time>2026-05-02T14:03:10Z</time></trkpt><trkpt lat="44.321621618808386" lon="9.209583237315545"><ele>128.57142857142858</ele><time>2026-05-02T14:03:17Z</time></trkpt><trkpt lat="44.321631171429765" lon="9.20968371130628"><ele>127.42857142857143</ele><time>2026-05-02T14:03:27Z</time></trkpt><trkpt lat="44.32165813713518" lon="9.209773903980189"><ele>126.2857142857143</ele><time>2026-05-02T14:03:34Z</time></trkpt><trkpt lat="44.32164256061351" lon="9.209869488292751"><ele>125.14285714285715</ele><time>2026-05-02T14:03:47Z</time></trkpt><trkpt lat="44.32171129523367" lon="9.209921361037386"><ele>124.0</ele><time>2026-05-02T14:06:18.999Z</time></trkpt><trkpt lat="44.32178270317673" lon="9.20995473953099"><ele>113.0</ele><time>2026-05-02T14:06:26.999Z</time></trkpt><trkpt lat="44.32183158925672" lon="9.210015527887396"><ele>113.0</ele><time>2026-05-02T14:06:32.999Z</time></trkpt><trkpt lat="44.32189926801869" lon="9.21005651003897"><ele>113.0</ele><time>2026-05-02T14:06:38.999Z</time></trkpt></trkseg></trk></gpx>